Time;durP1;ratioP1;P1;durP2;ratioP2;P2;SDS_P1;SDS_P2;PMS_P1;PMS_P2;Temp;Humidity;BMP_temperature;BMP_pressure;BME280_temperature;BME280_humidity;BME280_pressure;Samples;Min_cycle;Max_cycle;Signal;HPM_P1;HPM_P2
2023/07/19 03:58:56;;;;;;;7.57;4.07;;;26.10;96.10;;;;;;6240526;27;87083;-70
2023/07/19 04:01:58;;;;;;;6.47;4.20;;;26.10;95.50;;;;;;6249332;28;89393;-70
2023/07/19 04:05:00;;;;;;;6.68;4.28;;;26.10;95.40;;;;;;6244504;28;89421;-71
2023/07/19 04:08:02;;;;;;;6.43;4.18;;;26.00;94.40;;;;;;6245685;27;91046;-70
2023/07/19 04:11:04;;;;;;;8.90;4.70;;;25.90;94.90;;;;;;6242019;27;89786;-70
2023/07/19 04:14:07;;;;;;;5.78;4.03;;;25.90;95.20;;;;;;6243255;28;89526;-70
2023/07/19 04:17:10;;;;;;;6.97;4.00;;;25.90;95.40;;;;;;6246496;28;89079;-70
2023/07/19 04:20:12;;;;;;;5.43;4.00;;;25.90;95.20;;;;;;6251744;28;90003;-71
2023/07/19 04:23:14;;;;;;;7.00;4.22;;;25.90;95.30;;;;;;6233489;27;89045;-70
2023/07/19 04:26:16;;;;;;;6.07;4.20;;;25.90;95.50;;;;;;6235475;28;91444;-71
2023/07/19 04:29:21;;;;;;;6.55;4.40;;;25.90;95.60;;;;;;6255955;28;89485;-70
2023/07/19 04:32:23;;;;;;;5.75;4.20;;;25.90;95.70;;;;;;6245269;28;89026;-71
2023/07/19 04:35:25;;;;;;;7.88;4.47;;;25.90;95.90;;;;;;6240828;28;89104;-71
2023/07/19 04:38:27;;;;;;;6.50;4.28;;;25.90;96.00;;;;;;6243968;28;89096;-71
2023/07/19 04:41:29;;;;;;;6.82;4.55;;;26.00;96.10;;;;;;6248205;27;88817;-72
2023/07/19 04:44:33;;;;;;;6.40;4.10;;;26.00;96.20;;;;;;6241529;28;89022;-71
2023/07/19 04:47:37;;;;;;;5.00;4.00;;;26.00;96.10;;;;;;6233133;28;89402;-72
2023/07/19 04:50:38;;;;;;;6.88;4.32;;;26.00;96.10;;;;;;6231812;27;90450;-72
2023/07/19 04:53:40;;;;;;;7.07;4.18;;;26.00;96.10;;;;;;6233541;28;89147;-71
2023/07/19 04:56:42;;;;;;;5.63;4.10;;;26.00;96.10;;;;;;6242590;27;89035;-71
2023/07/19 04:59:46;;;;;;;8.85;4.20;;;26.00;96.20;;;;;;6242682;27;89319;-71
2023/07/19 05:02:47;;;;;;;5.90;4.00;;;26.00;96.30;;;;;;6244324;28;89413;-71
2023/07/19 05:05:50;;;;;;;7.15;4.22;;;26.00;96.30;;;;;;6244889;28;89070;-71
2023/07/19 05:08:52;;;;;;;7.43;4.50;;;26.00;96.40;;;;;;6235624;28;89325;-71
2023/07/19 05:11:54;;;;;;;6.10;4.55;;;26.00;96.40;;;;;;6243742;28;88533;-70
2023/07/19 05:14:57;;;;;;;4.93;4.28;;;26.10;96.50;;;;;;6245154;27;89137;-70
2023/07/19 05:18:00;;;;;;;4.78;4.03;;;26.00;96.50;;;;;;6240793;28;89100;-71
2023/07/19 05:21:02;;;;;;;6.75;3.80;;;26.10;96.50;;;;;;6245266;28;88838;-71
2023/07/19 05:24:05;;;;;;;6.18;4.05;;;26.10;96.60;;;;;;6232296;27;89075;-71
2023/07/19 05:27:07;;;;;;;6.20;4.15;;;26.10;96.60;;;;;;6231555;28;89182;-71
2023/07/19 05:30:11;;;;;;;4.88;4.25;;;26.10;96.60;;;;;;6231537;28;89029;-70
2023/07/19 05:33:14;;;;;;;5.15;3.90;;;26.10;96.70;;;;;;6231592;28;89141;-71
2023/07/19 05:36:16;;;;;;;5.55;4.10;;;26.10;96.70;;;;;;6231402;28;87110;-72
2023/07/19 05:39:18;;;;;;;5.38;3.90;;;26.10;96.90;;;;;;6230944;28;89077;-71
2023/07/19 05:42:20;;;;;;;6.28;4.10;;;26.10;96.90;;;;;;6241134;28;88458;-72
2023/07/19 05:45:24;;;;;;;5.80;4.60;;;26.10;96.90;;;;;;6239123;28;89016;-71
2023/07/19 05:48:26;;;;;;;5.60;4.30;;;26.10;97.00;;;;;;6246496;28;89147;-72
2023/07/19 05:51:28;;;;;;;7.97;4.85;;;26.20;97.20;;;;;;6238719;28;90013;-73
2023/07/19 05:54:31;;;;;;;6.32;4.40;;;26.20;97.30;;;;;;6241819;28;89051;-73
2023/07/19 05:57:32;;;;;;;6.70;4.60;;;26.20;97.40;;;;;;6243317;28;89063;-73
2023/07/19 06:00:36;;;;;;;5.75;4.50;;;26.20;97.60;;;;;;6251564;28;89031;-72
2023/07/19 06:03:38;;;;;;;6.68;4.82;;;26.20;97.70;;;;;;6230696;28;89071;-71
2023/07/19 06:06:40;;;;;;;8.35;5.45;;;26.20;97.90;;;;;;6237691;28;89121;-71
2023/07/19 06:09:42;;;;;;;5.30;4.65;;;26.20;98.00;;;;;;6242458;28;89440;-72
2023/07/19 06:12:45;;;;;;;6.45;4.50;;;26.20;98.10;;;;;;6240744;28;88673;-72
2023/07/19 06:15:48;;;;;;;5.35;4.80;;;26.20;98.10;;;;;;6245220;28;89378;-72
2023/07/19 06:18:50;;;;;;;7.85;4.95;;;26.20;98.20;;;;;;6243136;28;89406;-72
2023/07/19 06:21:52;;;;;;;7.78;5.10;;;26.20;98.30;;;;;;6232172;28;90078;-73
2023/07/19 06:24:54;;;;;;;6.07;5.35;;;26.20;98.30;;;;;;6243298;28;87934;-71
2023/07/19 06:27:56;;;;;;;6.80;5.22;;;26.20;98.40;;;;;;6230730;28;89149;-72
2023/07/19 06:31:01;;;;;;;6.57;5.07;;;26.20;98.60;;;;;;6238698;28;89589;-71
2023/07/19 06:34:03;;;;;;;6.15;5.05;;;26.20;98.70;;;;;;6249701;28;89170;-72
2023/07/19 06:37:05;;;;;;;6.53;4.88;;;26.20;98.90;;;;;;6237331;28;89089;-71
2023/07/19 06:40:08;;;;;;;6.30;5.35;;;26.20;99.00;;;;;;6235947;28;89468;-71
2023/07/19 06:43:10;;;;;;;7.22;5.47;;;26.20;99.10;;;;;;6232866;28;88684;-72
2023/07/19 06:46:13;;;;;;;9.23;5.65;;;26.20;99.10;;;;;;6247960;28;89113;-72
2023/07/19 06:49:16;;;;;;;6.82;5.53;;;26.20;99.20;;;;;;6227662;28;88720;-70
2023/07/19 06:52:18;;;;;;;6.78;5.35;;;26.20;99.30;;;;;;6248011;28;90413;-70
2023/07/19 06:55:20;;;;;;;8.23;5.28;;;26.20;99.40;;;;;;6237525;27;89116;-70
2023/07/19 06:58:22;;;;;;;7.03;5.60;;;26.20;99.40;;;;;;6245487;27;89355;-70
2023/07/19 07:01:26;;;;;;;8.98;5.28;;;26.20;99.50;;;;;;6235995;28;89004;-70
2023/07/19 07:04:28;;;;;;;7.57;5.13;;;26.30;99.60;;;;;;6240652;28;89113;-70
2023/07/19 07:07:30;;;;;;;7.10;5.05;;;26.20;99.50;;;;;;6246761;28;89090;-69
2023/07/19 07:10:32;;;;;;;5.45;4.80;;;26.30;99.60;;;;;;6235767;27;89115;-70
2023/07/19 07:13:34;;;;;;;8.73;5.43;;;26.30;99.70;;;;;;6229219;27;88368;-69
2023/07/19 07:16:38;;;;;;;7.00;5.32;;;26.30;99.70;;;;;;6246796;28;89089;-71
2023/07/19 07:19:40;;;;;;;5.68;5.00;;;26.30;99.80;;;;;;6251217;27;89097;-70
2023/07/19 07:22:42;;;;;;;7.22;5.00;;;26.30;99.90;;;;;;6241008;28;89952;-71
2023/07/19 07:25:44;;;;;;;6.78;5.50;;;26.30;99.90;;;;;;6242645;28;89103;-70
2023/07/19 07:28:46;;;;;;;8.18;5.50;;;26.30;99.90;;;;;;6235480;28;89028;-71
2023/07/19 07:31:49;;;;;;;7.53;5.55;;;26.30;99.90;;;;;;6249426;28;89112;-71
2023/07/19 07:34:51;;;;;;;7.45;5.40;;;26.30;99.90;;;;;;6252396;28;89397;-70
2023/07/19 07:37:53;;;;;;;5.63;4.82;;;26.30;99.90;;;;;;6243611;28;89067;-72
2023/07/19 07:41:00;;;;;;;9.07;5.53;;;26.30;99.90;;;;;;6238804;28;89057;-71
2023/07/19 07:44:02;;;;;;;6.53;5.13;;;26.30;99.90;;;;;;6242317;27;88371;-72
2023/07/19 07:47:05;;;;;;;7.88;5.00;;;26.30;99.90;;;;;;6237688;28;89375;-72
2023/07/19 07:50:09;;;;;;;7.70;5.00;;;26.30;99.90;;;;;;6252353;28;89373;-72
2023/07/19 07:53:11;;;;;;;5.32;4.55;;;26.30;99.90;;;;;;6245006;28;88911;-72
2023/07/19 07:56:13;;;;;;;6.28;5.45;;;26.30;99.90;;;;;;6233743;28;89494;-72
2023/07/19 07:59:16;;;;;;;7.03;5.20;;;26.30;99.90;;;;;;6231328;28;89150;-71
2023/07/19 08:02:19;;;;;;;6.70;5.18;;;26.30;99.90;;;;;;6234270;28;89035;-72
2023/07/19 08:05:21;;;;;;;5.90;4.75;;;26.30;99.90;;;;;;6238137;28;89150;-73
2023/07/19 08:08:23;;;;;;;6.97;4.82;;;26.30;99.90;;;;;;6232342;28;88961;-73
2023/07/19 08:11:26;;;;;;;6.78;4.80;;;26.30;99.90;;;;;;6244968;28;87819;-72
2023/07/19 08:14:28;;;;;;;7.72;5.07;;;26.30;99.90;;;;;;6247983;27;88335;-72
2023/07/19 08:17:32;;;;;;;6.57;5.07;;;26.30;99.90;;;;;;6243951;28;89122;-73
2023/07/19 08:20:34;;;;;;;6.90;5.15;;;26.30;99.90;;;;;;6237747;28;89471;-72
2023/07/19 08:23:36;;;;;;;8.35;5.00;;;26.30;99.90;;;;;;6237627;27;90168;-72
2023/07/19 08:26:38;;;;;;;6.22;4.80;;;26.30;99.90;;;;;;6242776;28;87829;-72
2023/07/19 08:29:40;;;;;;;6.00;4.55;;;26.30;99.90;;;;;;6235409;28;89261;-72
2023/07/19 08:32:45;;;;;;;6.20;4.70;;;26.40;99.90;;;;;;6240326;28;89334;-72
2023/07/19 08:35:47;;;;;;;6.22;5.03;;;26.30;99.90;;;;;;6246701;28;89460;-72
2023/07/19 08:38:49;;;;;;;5.20;4.57;;;26.30;99.90;;;;;;6229391;28;89394;-72
2023/07/19 08:41:51;;;;;;;6.10;4.78;;;26.30;99.90;;;;;;6232774;28;89386;-70
2023/07/19 08:44:54;;;;;;;6.70;4.93;;;26.30;99.90;;;;;;6244824;28;88356;-72
2023/07/19 08:47:58;;;;;;;7.05;4.72;;;26.40;99.90;;;;;;6240476;28;88985;-71
2023/07/19 08:51:02;;;;;;;6.10;4.40;;;26.40;99.90;;;;;;6243558;27;89114;-72
2023/07/19 08:54:04;;;;;;;6.65;4.85;;;26.40;99.90;;;;;;6233494;28;90037;-71
2023/07/19 08:57:07;;;;;;;5.93;4.43;;;26.30;99.90;;;;;;6229544;28;89064;-71
2023/07/19 09:00:09;;;;;;;8.40;4.82;;;26.40;99.90;;;;;;6240830;28;89027;-71
2023/07/19 09:03:15;;;;;;;6.13;4.07;;;26.40;99.90;;;;;;6239686;28;89109;-72
2023/07/19 09:06:24;;;;;;;6.90;4.30;;;26.40;99.90;;;;;;6241309;27;89234;-71
2023/07/19 09:09:26;;;;;;;5.18;3.97;;;26.40;99.90;;;;;;6239619;27;88090;-71
2023/07/19 09:12:37;;;;;;;5.70;3.95;;;26.40;99.90;;;;;;6233537;28;89220;-71
2023/07/19 09:15:40;;;;;;;5.05;3.80;;;26.40;99.90;;;;;;6241507;28;87221;-70
2023/07/19 09:18:46;;;;;;;6.88;4.28;;;26.40;99.90;;;;;;6245031;28;89127;-71
2023/07/19 09:21:49;;;;;;;7.72;4.10;;;26.40;99.90;;;;;;6228098;28;89083;-71
2023/07/19 09:24:55;;;;;;;7.25;4.00;;;26.40;99.90;;;;;;6234971;27;89246;-71
2023/07/19 09:27:57;;;;;;;5.82;4.10;;;26.40;99.90;;;;;;6230052;28;88895;-70
2023/07/19 09:31:01;;;;;;;8.00;4.40;;;26.40;99.90;;;;;;6230151;28;89002;-69
2023/07/19 09:34:05;;;;;;;7.65;4.10;;;26.40;99.90;;;;;;6228413;28;89097;-72
2023/07/19 09:37:07;;;;;;;6.25;4.43;;;26.40;99.90;;;;;;6242164;27;89233;-71
2023/07/19 09:40:10;;;;;;;6.63;4.10;;;26.40;99.90;;;;;;6231447;27;89578;-71
2023/07/19 09:43:14;;;;;;;6.15;4.03;;;26.40;99.90;;;;;;6229373;27;89087;-71
2023/07/19 09:46:17;;;;;;;7.15;4.00;;;26.40;99.90;;;;;;6228621;28;87986;-71
2023/07/19 09:49:20;;;;;;;4.38;3.65;;;26.40;99.90;;;;;;6244304;28;89200;-71
2023/07/19 09:52:26;;;;;;;7.95;4.13;;;26.40;99.90;;;;;;6248770;28;89102;-71
2023/07/19 09:55:28;;;;;;;5.72;4.00;;;26.40;99.90;;;;;;6240155;27;90084;-71
2023/07/19 09:58:31;;;;;;;5.22;3.70;;;26.40;99.90;;;;;;6239959;28;89376;-71
2023/07/19 10:01:33;;;;;;;5.22;3.85;;;26.40;99.90;;;;;;6240858;28;89102;-70
2023/07/19 10:04:38;;;;;;;7.68;4.00;;;26.40;99.90;;;;;;6239918;28;89129;-70
2023/07/19 10:07:42;;;;;;;8.40;4.10;;;26.40;99.90;;;;;;6235930;28;89164;-69
2023/07/19 10:10:44;;;;;;;5.40;3.63;;;26.40;99.90;;;;;;6233150;28;87874;-70
2023/07/19 10:13:57;;;;;;;6.20;3.97;;;26.40;99.90;;;;;;6243316;28;89013;-69
2023/07/19 10:17:00;;;;;;;5.10;3.95;;;26.40;99.90;;;;;;6238072;28;87413;-68
2023/07/19 10:20:14;;;;;;;6.97;3.95;;;26.50;99.90;;;;;;6245745;27;89026;-69
2023/07/19 10:23:16;;;;;;;5.40;3.80;;;26.40;99.90;;;;;;6229132;27;89646;-70
2023/07/19 10:26:30;;;;;;;5.53;3.72;;;26.40;99.90;;;;;;6234090;28;90386;-71
2023/07/19 10:29:42;;;;;;;6.65;4.05;;;26.50;99.90;;;;;;6231512;28;89204;-70
2023/07/19 10:32:44;;;;;;;5.97;3.72;;;26.50;99.90;;;;;;6233599;28;89204;-70
2023/07/19 10:35:49;;;;;;;6.07;3.83;;;26.50;99.90;;;;;;6247816;28;89060;-70
2023/07/19 10:38:51;;;;;;;7.30;4.20;;;26.50;99.90;;;;;;6236880;28;88030;-71
2023/07/19 10:41:53;;;;;;;6.85;4.03;;;26.50;99.90;;;;;;6245326;28;89264;-70
2023/07/19 10:44:57;;;;;;;6.32;4.10;;;26.50;99.90;;;;;;6232094;28;89156;-69
2023/07/19 10:47:59;;;;;;;7.25;4.13;;;26.50;99.90;;;;;;6232720;28;88321;-69
2023/07/19 10:51:04;;;;;;;5.47;4.10;;;26.50;99.90;;;;;;6251279;28;87891;-69
2023/07/19 10:54:08;;;;;;;7.88;4.40;;;26.50;99.90;;;;;;6247186;28;89422;-70
2023/07/19 10:57:10;;;;;;;6.13;4.25;;;26.50;99.90;;;;;;6232309;28;90076;-70
2023/07/19 11:00:13;;;;;;;5.40;4.15;;;26.50;99.90;;;;;;6233665;28;88248;-69
2023/07/19 11:03:17;;;;;;;6.25;4.35;;;26.50;99.90;;;;;;6237578;28;89117;-69
2023/07/19 11:06:20;;;;;;;5.18;4.00;;;26.50;99.90;;;;;;6254227;28;89019;-69
2023/07/19 11:09:23;;;;;;;6.70;4.00;;;26.50;99.90;;;;;;6240801;28;89189;-70
2023/07/19 11:12:25;;;;;;;3.65;3.35;;;26.50;99.90;;;;;;6233804;28;89431;-69
2023/07/19 11:15:28;;;;;;;5.22;3.90;;;26.50;99.90;;;;;;6249379;27;88855;-69
2023/07/19 11:18:31;;;;;;;5.35;4.07;;;26.50;99.90;;;;;;6236792;28;88317;-70
2023/07/19 11:21:34;;;;;;;5.68;3.92;;;26.50;99.90;;;;;;6240470;28;88625;-69
2023/07/19 11:24:38;;;;;;;5.75;4.22;;;26.50;99.90;;;;;;6236891;28;89105;-69
2023/07/19 11:27:40;;;;;;;6.10;4.32;;;26.60;99.90;;;;;;6240954;28;90035;-70
2023/07/19 11:30:42;;;;;;;6.88;4.18;;;26.60;99.90;;;;;;6239029;28;88999;-70
2023/07/19 11:33:49;;;;;;;5.18;3.85;;;26.60;99.90;;;;;;6243489;28;89086;-70
2023/07/19 11:36:52;;;;;;;5.10;4.20;;;26.60;99.90;;;;;;6246872;27;88359;-69
2023/07/19 11:39:57;;;;;;;5.45;4.32;;;26.50;99.90;;;;;;6242797;28;89166;-70
2023/07/19 11:42:59;;;;;;;5.55;4.10;;;26.60;99.90;;;;;;6233929;28;89140;-70
2023/07/19 11:46:01;;;;;;;6.82;4.47;;;26.60;99.90;;;;;;6254462;28;89569;-71
2023/07/19 11:49:09;;;;;;;4.93;4.43;;;26.60;99.90;;;;;;6242704;28;88594;-70
2023/07/19 11:52:13;;;;;;;5.88;4.78;;;26.60;99.90;;;;;;6231318;28;89149;-70
2023/07/19 11:55:16;;;;;;;5.45;4.28;;;26.60;99.90;;;;;;6242781;28;89394;-70
2023/07/19 11:58:18;;;;;;;4.85;4.20;;;26.60;99.90;;;;;;6231619;28;90452;-70
2023/07/19 12:01:21;;;;;;;5.75;4.28;;;26.60;99.90;;;;;;6232307;28;89072;-70
2023/07/19 12:04:23;;;;;;;5.72;4.90;;;26.50;99.90;;;;;;6233260;28;89115;-70
2023/07/19 12:07:26;;;;;;;5.55;4.30;;;26.60;99.90;;;;;;6239897;28;89117;-71
2023/07/19 12:10:29;;;;;;;4.63;4.20;;;26.60;99.90;;;;;;6239213;28;89574;-71
2023/07/19 12:13:31;;;;;;;5.22;4.55;;;26.60;99.90;;;;;;6246574;28;89570;-71
2023/07/19 12:16:33;;;;;;;6.22;4.43;;;26.60;99.90;;;;;;6241747;28;89125;-72
2023/07/19 12:19:35;;;;;;;5.65;4.00;;;26.60;99.90;;;;;;6250517;28;88330;-71
2023/07/19 12:22:40;;;;;;;4.93;4.20;;;26.60;99.90;;;;;;6251078;27;89591;-71
2023/07/19 12:25:43;;;;;;;5.20;4.38;;;26.60;99.90;;;;;;6250183;28;89160;-71
2023/07/19 12:28:45;;;;;;;6.82;4.68;;;26.60;99.90;;;;;;6230606;28;90122;-71
2023/07/19 12:31:47;;;;;;;5.68;4.30;;;26.60;99.90;;;;;;6242902;27;88887;-71
2023/07/19 12:34:49;;;;;;;5.22;4.43;;;26.60;99.90;;;;;;6243945;28;89067;-71
2023/07/19 12:37:53;;;;;;;4.72;4.13;;;26.60;99.90;;;;;;6232045;28;89125;-71
2023/07/19 12:40:55;;;;;;;5.03;4.50;;;26.60;99.90;;;;;;6237315;28;87821;-72
2023/07/19 12:43:57;;;;;;;4.97;4.47;;;26.60;99.90;;;;;;6245486;28;89280;-71
2023/07/19 12:46:59;;;;;;;5.47;4.47;;;26.60;99.90;;;;;;6244152;28;89025;-72
2023/07/19 12:50:02;;;;;;;4.75;4.30;;;26.60;99.90;;;;;;6245991;27;88448;-72
2023/07/19 12:53:05;;;;;;;5.38;4.35;;;26.60;99.90;;;;;;6231307;27;89075;-71
2023/07/19 12:56:07;;;;;;;4.65;4.20;;;26.60;99.90;;;;;;6231162;28;89327;-72
2023/07/19 12:59:10;;;;;;;5.68;4.90;;;26.60;99.90;;;;;;6238451;28;90000;-72
2023/07/19 13:02:12;;;;;;;6.00;5.10;;;26.60;99.90;;;;;;6245423;28;89484;-72
2023/07/19 13:05:14;;;;;;;8.43;5.43;;;26.60;99.90;;;;;;6250654;28;89089;-72
2023/07/19 13:08:17;;;;;;;7.35;5.65;;;26.60;99.90;;;;;;6242654;28;89218;-70
2023/07/19 13:11:20;;;;;;;8.40;5.50;;;26.60;99.90;;;;;;6250127;27;88895;-71
2023/07/19 13:14:22;;;;;;;7.15;5.72;;;26.60;99.90;;;;;;6242500;28;89290;-73
2023/07/19 13:17:23;;;;;;;7.82;6.05;;;26.60;99.90;;;;;;6241802;27;89660;-72
2023/07/19 13:20:25;;;;;;;10.05;6.00;;;26.60;99.90;;;;;;6246100;27;88693;-73
2023/07/19 13:23:29;;;;;;;9.05;6.07;;;26.60;99.90;;;;;;6228037;27;89114;-73
2023/07/19 13:26:31;;;;;;;9.02;6.07;;;26.60;99.90;;;;;;6240977;28;89082;-71
2023/07/19 13:29:33;;;;;;;10.60;6.13;;;26.50;99.90;;;;;;6234858;27;90013;-70
2023/07/19 13:32:35;;;;;;;9.70;6.10;;;26.60;99.90;;;;;;6238204;28;89151;-71
2023/07/19 13:35:37;;;;;;;10.77;6.18;;;26.60;99.90;;;;;;6236826;28;90019;-68
2023/07/19 13:38:41;;;;;;;10.15;6.78;;;26.60;99.90;;;;;;6240689;28;89086;-72
2023/07/19 13:41:43;;;;;;;11.30;6.68;;;26.60;99.90;;;;;;6232031;28;89013;-72
2023/07/19 13:44:45;;;;;;;12.65;7.18;;;26.60;99.90;;;;;;6241763;27;89111;-71
2023/07/19 13:47:47;;;;;;;12.63;7.30;;;26.60;99.90;;;;;;6239063;28;89151;-72
2023/07/19 13:50:49;;;;;;;14.00;7.70;;;26.60;99.90;;;;;;6235746;28;88333;-71
2023/07/19 13:53:52;;;;;;;12.38;7.40;;;26.60;99.90;;;;;;6241660;28;89241;-71
2023/07/19 13:56:54;;;;;;;12.10;7.90;;;26.70;99.90;;;;;;6243363;28;89111;-71
2023/07/19 13:59:56;;;;;;;13.35;7.97;;;26.60;99.90;;;;;;6245883;27;90377;-71
2023/07/19 14:02:58;;;;;;;14.98;8.00;;;26.60;99.90;;;;;;6236418;28;89142;-72
2023/07/19 14:06:00;;;;;;;12.82;7.55;;;26.70;99.90;;;;;;6233991;28;89102;-72
2023/07/19 14:09:03;;;;;;;13.65;7.82;;;26.60;99.90;;;;;;6238385;28;89062;-71
2023/07/19 14:12:06;;;;;;;12.85;7.75;;;26.70;99.90;;;;;;6237569;28;89044;-71
2023/07/19 14:15:09;;;;;;;12.23;7.60;;;26.70;99.90;;;;;;6245083;28;89314;-71
2023/07/19 14:18:11;;;;;;;12.02;7.38;;;26.60;99.90;;;;;;6247109;28;89146;-71
2023/07/19 14:21:13;;;;;;;11.95;7.30;;;26.70;99.90;;;;;;6234934;28;88346;-72
2023/07/19 14:24:17;;;;;;;11.90;7.40;;;26.70;99.90;;;;;;6231554;27;89112;-71
2023/07/19 14:27:19;;;;;;;14.35;7.10;;;26.70;99.90;;;;;;6234319;28;89033;-72
2023/07/19 14:30:21;;;;;;;12.63;7.60;;;26.60;99.90;;;;;;6247081;28;88002;-71
2023/07/19 14:33:26;;;;;;;13.30;7.45;;;26.60;99.90;;;;;;6247621;28;89259;-72
2023/07/19 14:36:28;;;;;;;12.40;7.47;;;26.70;99.90;;;;;;6245410;27;89228;-72
2023/07/19 14:39:32;;;;;;;11.90;6.93;;;26.60;99.90;;;;;;6245134;28;89146;-71
2023/07/19 14:42:34;;;;;;;11.82;6.90;;;26.70;99.90;;;;;;6257184;27;89297;-71
2023/07/19 14:45:36;;;;;;;10.23;6.80;;;26.70;99.90;;;;;;6235018;28;89216;-71
2023/07/19 14:48:38;;;;;;;10.70;6.80;;;26.60;99.90;;;;;;6250581;27;89475;-71
2023/07/19 14:51:40;;;;;;;11.38;7.05;;;26.70;99.90;;;;;;6252416;28;88330;-71
2023/07/19 14:54:44;;;;;;;11.40;6.50;;;26.70;99.90;;;;;;6244920;27;88245;-71
2023/07/19 14:57:46;;;;;;;9.63;6.32;;;26.70;99.90;;;;;;6241648;28;89171;-71
2023/07/19 15:00:48;;;;;;;10.90;6.65;;;26.70;99.90;;;;;;6244158;27;90946;-71
2023/07/19 15:03:51;;;;;;;11.98;6.50;;;26.70;99.90;;;;;;6233678;28;89262;-72
2023/07/19 15:06:53;;;;;;;9.77;6.50;;;26.70;99.90;;;;;;6241469;28;89380;-71
2023/07/19 15:09:56;;;;;;;11.75;6.47;;;26.60;99.90;;;;;;6253067;28;89092;-71
2023/07/19 15:12:58;;;;;;;8.68;6.25;;;26.70;99.90;;;;;;6252540;28;89096;-71
2023/07/19 15:16:00;;;;;;;11.13;6.40;;;26.70;99.90;;;;;;6255295;28;90573;-71
2023/07/19 15:19:03;;;;;;;10.50;6.25;;;26.70;99.90;;;;;;6250946;28;89131;-71
2023/07/19 15:22:06;;;;;;;9.98;6.40;;;26.70;99.90;;;;;;6249738;28;88363;-72
2023/07/19 15:25:11;;;;;;;10.75;6.00;;;26.70;99.90;;;;;;6234343;28;89115;-70
2023/07/19 15:28:13;;;;;;;8.18;5.72;;;26.70;99.90;;;;;;6244648;28;88024;-71
2023/07/19 15:31:15;;;;;;;7.68;5.53;;;26.70;99.90;;;;;;6242451;28;90024;-71
2023/07/19 15:34:17;;;;;;;8.50;6.03;;;26.70;99.90;;;;;;6236935;28;88333;-71
2023/07/19 15:37:19;;;;;;;8.73;6.00;;;26.60;99.90;;;;;;6240764;27;89326;-71
2023/07/19 15:40:23;;;;;;;8.18;5.75;;;26.70;99.90;;;;;;6250158;27;89384;-70
2023/07/19 15:43:25;;;;;;;8.43;5.78;;;26.60;99.90;;;;;;6253177;27;89084;-71
2023/07/19 15:46:27;;;;;;;8.75;5.57;;;26.60;99.90;;;;;;6240656;28;89117;-71
2023/07/19 15:49:28;;;;;;;8.30;5.60;;;26.70;99.90;;;;;;6253910;28;89101;-71
2023/07/19 15:52:31;;;;;;;9.40;5.93;;;26.70;99.90;;;;;;6235991;28;88268;-70
2023/07/19 15:55:34;;;;;;;7.38;5.50;;;26.70;99.90;;;;;;6243548;28;89132;-71
2023/07/19 15:58:37;;;;;;;8.73;5.65;;;26.70;99.90;;;;;;6246264;28;89174;-71
2023/07/19 16:01:39;;;;;;;7.75;5.53;;;26.70;99.90;;;;;;6232893;28;90250;-70
2023/07/19 16:04:41;;;;;;;7.10;5.57;;;26.70;99.90;;;;;;6233278;28;88122;-71
2023/07/19 16:07:43;;;;;;;8.20;5.50;;;26.70;99.90;;;;;;6235106;28;89045;-71
2023/07/19 16:10:46;;;;;;;7.45;5.47;;;26.70;99.90;;;;;;6246289;28;89123;-71
2023/07/19 16:13:49;;;;;;;6.93;5.47;;;26.70;99.90;;;;;;6233863;28;89170;-70
2023/07/19 16:16:51;;;;;;;6.35;5.30;;;26.70;99.90;;;;;;6233225;28;88968;-71
2023/07/19 16:19:53;;;;;;;8.07;5.43;;;26.70;99.90;;;;;;6262048;27;89197;-71
2023/07/19 16:22:55;;;;;;;8.15;5.40;;;26.70;99.90;;;;;;6239005;27;89016;-71
2023/07/19 16:25:58;;;;;;;6.22;5.15;;;26.70;99.90;;;;;;6238573;27;89321;-70
2023/07/19 16:29:00;;;;;;;7.13;4.95;;;26.70;99.90;;;;;;6245131;27;88335;-71
2023/07/19 16:32:02;;;;;;;8.32;5.65;;;26.60;99.90;;;;;;6246332;28;90059;-71
2023/07/19 16:35:05;;;;;;;6.93;5.47;;;26.70;99.90;;;;;;6243051;27;89163;-71
2023/07/19 16:38:09;;;;;;;7.63;5.18;;;26.60;99.90;;;;;;6234051;28;89059;-71
2023/07/19 16:41:12;;;;;;;7.25;5.13;;;26.60;99.90;;;;;;6234848;28;89359;-71
2023/07/19 16:44:14;;;;;;;7.65;5.25;;;26.70;99.90;;;;;;6243156;28;89085;-71
2023/07/19 16:47:16;;;;;;;5.95;4.80;;;26.70;99.90;;;;;;6232163;28;89289;-71
2023/07/19 16:50:19;;;;;;;5.72;4.85;;;26.70;99.90;;;;;;6251501;28;89416;-71
2023/07/19 16:53:21;;;;;;;6.85;4.90;;;26.70;99.90;;;;;;6245018;28;88270;-72
2023/07/19 16:56:24;;;;;;;5.75;4.70;;;26.70;99.90;;;;;;6232486;28;89155;-72
2023/07/19 16:59:26;;;;;;;6.50;4.50;;;26.70;99.90;;;;;;6244266;27;89522;-71
2023/07/19 17:02:29;;;;;;;6.13;4.65;;;26.70;99.90;;;;;;6231379;28;90296;-71
2023/07/19 17:05:32;;;;;;;5.93;4.78;;;26.70;99.80;;;;;;6247495;27;89112;-71
2023/07/19 17:08:34;;;;;;;6.22;4.90;;;26.70;99.80;;;;;;6242802;28;89588;-71
2023/07/19 17:11:37;;;;;;;7.22;5.57;;;26.70;99.70;;;;;;6241138;28;89168;-71
2023/07/19 17:14:39;;;;;;;6.30;5.03;;;26.70;99.70;;;;;;6254617;27;89114;-71
2023/07/19 17:17:41;;;;;;;6.63;4.90;;;26.70;99.70;;;;;;6242586;28;89410;-71
2023/07/19 17:20:45;;;;;;;6.25;4.88;;;26.70;99.70;;;;;;6247770;27;89141;-71
2023/07/19 17:23:47;;;;;;;6.20;5.00;;;26.70;99.60;;;;;;6244078;27;88406;-71
2023/07/19 17:26:51;;;;;;;5.60;4.60;;;26.70;99.60;;;;;;6245909;27;89133;-71
2023/07/19 17:29:54;;;;;;;6.50;4.85;;;26.70;99.60;;;;;;6242606;27;89129;-69
2023/07/19 17:32:57;;;;;;;6.20;4.60;;;26.70;99.50;;;;;;6232801;27;89096;-71
2023/07/19 17:36:00;;;;;;;5.53;4.80;;;26.70;99.60;;;;;;6240370;27;89222;-72
2023/07/19 17:39:03;;;;;;;5.65;4.57;;;26.70;99.80;;;;;;6238026;27;88621;-72
2023/07/19 17:42:09;;;;;;;6.80;4.57;;;26.70;99.80;;;;;;6237754;27;87903;-71
2023/07/19 17:45:12;;;;;;;5.22;4.50;;;26.70;99.90;;;;;;6234871;28;87968;-71
2023/07/19 17:48:16;;;;;;;5.25;4.70;;;26.70;99.80;;;;;;6247791;28;88071;-71
2023/07/19 17:51:19;;;;;;;6.90;5.00;;;26.70;99.80;;;;;;6241808;28;88019;-71
2023/07/19 17:54:23;;;;;;;5.45;4.88;;;26.70;99.80;;;;;;6228712;28;87381;-71
2023/07/19 17:57:29;;;;;;;6.07;4.50;;;26.70;99.80;;;;;;6227394;28;89845;-72
2023/07/19 18:00:33;;;;;;;5.78;4.63;;;26.70;99.80;;;;;;6227828;28;88382;-72
2023/07/19 18:03:38;;;;;;;7.00;5.68;;;26.80;99.90;;;;;;6244870;28;88813;-73
2023/07/19 18:06:42;;;;;;;5.10;4.60;;;26.80;99.90;;;;;;6231131;28;88084;-70
2023/07/19 18:09:46;;;;;;;6.28;4.75;;;26.80;99.40;;;;;;6252669;28;87096;-74
2023/07/19 18:12:52;;;;;;;6.20;4.75;;;26.90;98.40;;;;;;6236474;28;87183;-71
2023/07/19 18:15:55;;;;;;;5.97;4.85;;;26.90;97.00;;;;;;6233328;28;89389;-72
2023/07/19 18:18:59;;;;;;;6.35;5.03;;;27.00;96.40;;;;;;6244178;28;87821;-72
2023/07/19 18:22:02;;;;;;;5.32;4.55;;;26.90;95.70;;;;;;6230609;28;88281;-72
2023/07/19 18:25:07;;;;;;;5.43;4.63;;;26.90;95.00;;;;;;6252922;28;87294;-72
2023/07/19 18:28:14;;;;;;;5.45;4.50;;;26.90;94.30;;;;;;6233270;28;88880;-72
2023/07/19 18:31:17;;;;;;;4.57;4.18;;;26.90;93.90;;;;;;6234027;28;88006;-72
2023/07/19 18:34:21;;;;;;;5.95;4.30;;;26.90;92.90;;;;;;6237700;28;88956;-72
2023/07/19 18:37:25;;;;;;;5.13;4.28;;;26.90;92.50;;;;;;6237953;28;88029;-71
2023/07/19 18:40:28;;;;;;;4.50;4.00;;;26.90;91.90;;;;;;6245808;27;87920;-72
2023/07/19 18:43:34;;;;;;;5.00;4.03;;;26.80;91.60;;;;;;6237979;27;88348;-72
2023/07/19 18:46:37;;;;;;;5.65;4.10;;;26.80;90.80;;;;;;6238882;28;88159;-72
2023/07/19 18:49:41;;;;;;;4.07;3.70;;;26.80;90.70;;;;;;6248174;28;88041;-72
2023/07/19 18:52:45;;;;;;;5.93;3.80;;;26.80;90.60;;;;;;6242429;27;87968;-72
2023/07/19 18:55:48;;;;;;;6.32;4.50;;;26.80;90.40;;;;;;6243714;28;87369;-71
2023/07/19 18:58:54;;;;;;;8.07;4.60;;;26.80;90.00;;;;;;6241722;27;87869;-71
2023/07/19 19:02:00;;;;;;;12.23;5.57;;;26.80;90.00;;;;;;6230905;27;87161;-71
2023/07/19 19:05:04;;;;;;;9.98;4.60;;;26.70;90.40;;;;;;6232205;28;89148;-72
2023/07/19 19:12:04;;;;;;;9.82;4.70;;;26.70;90.70;;;;;;6226611;28;88334;-71
2023/07/19 19:15:12;;;;;;;6.90;4.47;;;26.70;90.00;;;;;;6234676;28;88346;-71
2023/07/19 19:18:15;;;;;;;7.80;4.32;;;26.70;88.90;;;;;;6242867;28;87336;-71
2023/07/19 19:21:20;;;;;;;5.43;4.20;;;26.70;87.90;;;;;;6244902;27;87215;-72
2023/07/19 19:24:27;;;;;;;5.47;3.83;;;26.70;87.40;;;;;;6239312;28;89761;-72
2023/07/19 19:27:31;;;;;;;5.35;3.75;;;26.70;86.20;;;;;;6234999;28;88188;-72
2023/07/19 19:30:41;;;;;;;6.68;4.30;;;26.70;85.50;;;;;;6237729;28;88209;-72
2023/07/19 19:33:45;;;;;;;4.85;3.70;;;26.70;85.20;;;;;;6236484;27;88600;-72
2023/07/19 19:36:49;;;;;;;5.47;4.05;;;26.70;84.80;;;;;;6244842;28;88788;-73
2023/07/19 19:39:56;;;;;;;4.75;3.70;;;26.70;84.10;;;;;;6232136;28;88196;-72
2023/07/19 19:43:00;;;;;;;4.47;3.90;;;26.70;83.00;;;;;;6240105;28;87937;-72
2023/07/19 19:46:05;;;;;;;5.25;3.88;;;26.70;81.00;;;;;;6230495;28;88078;-71
2023/07/19 19:49:09;;;;;;;5.15;3.33;;;26.70;80.30;;;;;;6244974;28;88069;-72
2023/07/19 19:52:15;;;;;;;5.07;3.42;;;26.60;79.80;;;;;;6242370;28;89377;-71